createdAt,value
2018-02-21T00:01:53.536Z,49.60
2018-02-21T00:04:21.026Z,47.70
2018-02-21T00:06:48.663Z,48.80
2018-02-21T00:09:17.113Z,49.28
2018-02-21T00:11:44.870Z,49.60
2018-02-21T00:14:12.640Z,49.28
2018-02-21T00:16:40.437Z,52.33
2018-02-21T00:19:08.098Z,48.70
2018-02-21T00:21:35.785Z,47.55
2018-02-21T00:24:03.519Z,48.92
2018-02-21T00:26:31.118Z,54.13
2018-02-21T00:28:58.738Z,51.22
2018-02-21T00:31:27.100Z,48.33
2018-02-21T00:33:54.781Z,52.67
2018-02-21T00:36:22.462Z,52.13
2018-02-21T00:38:50.087Z,52.42
2018-02-21T00:41:17.750Z,50.55
2018-02-21T00:43:45.391Z,51.80
2018-02-21T00:46:13.120Z,51.58
2018-02-21T00:48:40.756Z,50.95
2018-02-21T00:51:08.431Z,51.08
2018-02-21T00:53:36.239Z,53.45
2018-02-21T00:56:03.814Z,54.15
2018-02-21T00:58:32.066Z,54.63
2018-02-21T01:00:59.676Z,52.95
2018-02-21T01:03:28.099Z,53.20
2018-02-21T01:05:56.587Z,53.87
2018-02-21T01:08:24.422Z,55.08
2018-02-21T01:10:52.908Z,51.78
2018-02-21T01:13:21.536Z,52.22
2018-02-21T01:15:49.972Z,53.92
2018-02-21T01:18:18.152Z,53.97
2018-02-21T01:20:46.228Z,52.30
2018-02-21T01:23:13.952Z,54.72
2018-02-21T01:25:41.513Z,57.65
2018-02-21T01:28:09.273Z,55.17
2018-02-21T01:30:37.067Z,53.50
2018-02-21T01:33:04.825Z,54.78
2018-02-21T01:35:32.599Z,56.15
2018-02-21T01:38:01.875Z,51.88
2018-02-21T01:40:29.499Z,57.40
2018-02-21T01:42:57.318Z,54.30
2018-02-21T01:45:25.102Z,55.75
2018-02-21T01:47:52.759Z,55.30
2018-02-21T01:50:20.493Z,55.28
2018-02-21T01:52:49.174Z,59.78
2018-02-21T01:55:17.189Z,57.03
2018-02-21T01:57:45.482Z,52.95
2018-02-21T02:00:13.298Z,53.60
2018-02-21T02:02:41.034Z,53.10
2018-02-21T02:05:08.733Z,57.03
2018-02-21T02:07:36.372Z,54.40
2018-02-21T02:10:04.798Z,56.37
2018-02-21T02:12:32.422Z,56.25
2018-02-21T02:15:00.991Z,56.80
2018-02-21T02:17:29.493Z,57.30
2018-02-21T02:19:57.851Z,57.17
2018-02-21T02:22:25.693Z,58.08
2018-02-21T02:24:54.134Z,56.85
2018-02-21T02:27:21.846Z,52.38
2018-02-21T02:29:49.434Z,56.42
2018-02-21T02:32:17.225Z,55.00
2018-02-21T02:34:44.889Z,55.67
2018-02-21T02:37:12.544Z,58.17
2018-02-21T02:40:01.943Z,57.80
2018-02-21T02:42:29.603Z,57.15
2018-02-21T02:44:57.117Z,57.20
2018-02-21T02:47:24.638Z,57.20
2018-02-21T02:49:52.509Z,56.75
2018-02-21T02:52:20.130Z,56.25
2018-02-21T02:54:47.767Z,56.88
2018-02-21T02:57:15.669Z,59.30
2018-02-21T02:59:43.417Z,61.10
2018-02-21T03:02:11.285Z,58.50
2018-02-21T03:04:39.235Z,57.25
2018-02-21T03:07:06.900Z,59.75
2018-02-21T03:09:34.662Z,60.75
2018-02-21T03:12:02.472Z,58.17
2018-02-21T03:14:30.220Z,61.65
2018-02-21T03:16:58.271Z,59.13
2018-02-21T03:19:26.576Z,57.33
2018-02-21T03:21:54.469Z,60.12
2018-02-21T03:24:22.073Z,56.75
2018-02-21T03:26:49.916Z,57.10
2018-02-21T03:29:17.880Z,59.17
2018-02-21T03:31:45.754Z,59.97
2018-02-21T03:34:13.408Z,60.97
2018-02-21T03:36:40.966Z,58.35
2018-02-21T03:39:09.450Z,62.13
2018-02-21T03:41:37.237Z,61.00
2018-02-21T03:44:05.088Z,57.75
2018-02-21T03:46:32.938Z,60.42
2018-02-21T03:49:01.712Z,64.00
2018-02-21T03:51:29.533Z,61.63
2018-02-21T03:53:57.393Z,60.47
2018-02-21T03:56:25.137Z,60.70
2018-02-21T03:58:52.847Z,63.78
2018-02-21T04:01:20.854Z,64.75
2018-02-21T04:03:48.661Z,59.05
2018-02-21T04:06:16.412Z,61.30
2018-02-21T04:08:44.294Z,64.50
2018-02-21T04:11:12.060Z,62.10
2018-02-21T04:13:39.742Z,64.05
2018-02-21T04:16:07.643Z,61.83
2018-02-21T04:18:35.333Z,65.07
2018-02-21T04:21:03.014Z,63.28
2018-02-21T04:23:30.880Z,63.53
2018-02-21T04:25:58.748Z,62.13
2018-02-21T04:28:26.574Z,61.90
2018-02-21T04:30:54.380Z,61.33
2018-02-21T04:33:23.044Z,63.30
2018-02-21T04:35:52.302Z,64.12
2018-02-21T04:38:20.917Z,62.83
2018-02-21T04:40:49.137Z,62.45
2018-02-21T04:43:16.855Z,61.17
2018-02-21T04:45:44.656Z,63.08
2018-02-21T04:48:12.318Z,62.15
2018-02-21T04:50:40.049Z,63.55
2018-02-21T04:53:08.614Z,63.05
2018-02-21T04:55:36.798Z,64.35
2018-02-21T04:58:10.067Z,66.03
2018-02-21T05:00:37.703Z,64.53
2018-02-21T05:03:05.290Z,61.33
2018-02-21T05:05:34.895Z,62.92
2018-02-21T05:08:02.626Z,63.47
2018-02-21T05:10:30.445Z,61.70
2018-02-21T05:12:58.198Z,64.28
2018-02-21T05:15:26.200Z,62.62
2018-02-21T05:17:54.029Z,63.70
2018-02-21T05:20:21.861Z,61.45
2018-02-21T05:22:49.608Z,65.35
2018-02-21T05:25:18.060Z,65.93
2018-02-21T05:27:45.871Z,59.83
2018-02-21T05:30:13.671Z,66.40
2018-02-21T05:32:42.410Z,68.35
2018-02-21T05:35:10.063Z,63.97
2018-02-21T05:37:38.011Z,65.25
2018-02-21T05:40:05.818Z,61.08
2018-02-21T05:42:33.470Z,65.65
2018-02-21T05:45:01.364Z,61.30
2018-02-21T05:47:29.001Z,62.42
2018-02-21T05:49:56.601Z,65.62
2018-02-21T05:52:24.486Z,62.78
2018-02-21T05:54:52.980Z,63.00
2018-02-21T05:57:20.636Z,61.20
2018-02-21T05:59:48.320Z,60.50
2018-02-21T06:02:16.158Z,64.35
2018-02-21T06:04:44.013Z,60.70
2018-02-21T06:07:11.706Z,62.75
2018-02-21T06:09:40.014Z,63.28
2018-02-21T06:12:09.203Z,63.85
2018-02-21T06:14:36.882Z,62.30
2018-02-21T06:17:04.577Z,62.60
2018-02-21T06:19:32.252Z,64.93
2018-02-21T06:22:00.708Z,62.03
2018-02-21T06:24:28.248Z,63.38
2018-02-21T06:26:55.930Z,65.70
2018-02-21T06:29:23.818Z,63.55
2018-02-21T06:31:51.575Z,67.15
2018-02-21T06:34:19.340Z,64.30
2018-02-21T06:36:47.109Z,65.40
2018-02-21T06:39:14.851Z,65.37
2018-02-21T06:41:42.567Z,63.10
2018-02-21T06:44:11.016Z,65.18
2018-02-21T06:46:38.744Z,63.35
2018-02-21T06:49:06.423Z,66.28
2018-02-21T06:51:34.805Z,62.50
2018-02-21T06:54:04.113Z,63.53
2018-02-21T06:56:31.753Z,62.80
2018-02-21T06:58:59.297Z,61.75
2018-02-21T07:01:27.725Z,60.55
2018-02-21T07:03:56.123Z,60.53
2018-02-21T07:06:24.655Z,64.03
2018-02-21T07:08:52.316Z,62.67
2018-02-21T07:11:19.879Z,62.50
2018-02-21T07:13:47.538Z,63.58
2018-02-21T07:16:15.222Z,60.97
2018-02-21T07:18:43.009Z,61.65
2018-02-21T07:21:10.754Z,62.42
2018-02-21T07:23:38.419Z,60.60
2018-02-21T07:26:06.096Z,59.60
2018-02-21T07:28:33.751Z,58.85
2018-02-21T07:31:02.173Z,58.22
2018-02-21T07:33:29.868Z,58.70
2018-02-21T07:35:57.559Z,58.13
2018-02-21T07:38:25.158Z,56.53
2018-02-21T07:40:52.703Z,56.30
2018-02-21T07:43:20.412Z,57.85
2018-02-21T07:45:48.593Z,58.05
2018-02-21T07:48:16.995Z,57.15
2018-02-21T07:50:44.699Z,54.65
2018-02-21T07:53:12.603Z,56.42
2018-02-21T07:58:14.369Z,54.85
2018-02-21T08:00:41.930Z,56.67
2018-02-21T08:03:10.202Z,52.53
2018-02-21T08:05:38.533Z,58.72
2018-02-21T08:08:06.022Z,54.20
2018-02-21T08:10:33.501Z,51.50
2018-02-21T08:13:01.777Z,52.70
2018-02-21T08:15:30.038Z,54.35
2018-02-21T08:17:58.338Z,52.47
2018-02-21T08:20:25.821Z,53.08
2018-02-21T08:22:53.354Z,52.30
2018-02-21T08:25:22.369Z,54.88
2018-02-21T08:27:49.998Z,51.63
2018-02-21T08:30:18.250Z,58.45
2018-02-21T08:32:45.765Z,54.00
2018-02-21T08:35:13.258Z,51.58
2018-02-21T08:37:40.809Z,52.15
2018-02-21T08:40:08.316Z,51.55
2018-02-21T08:42:36.563Z,51.40
2018-02-21T08:45:04.046Z,52.70
2018-02-21T08:47:32.341Z,51.95
2018-02-21T08:49:59.822Z,52.83
2018-02-21T08:52:27.595Z,51.45
2018-02-21T08:54:55.086Z,54.42
2018-02-21T08:57:22.577Z,54.45
2018-02-21T08:59:50.082Z,52.70
2018-02-21T09:02:17.611Z,56.53
2018-02-21T09:04:45.111Z,51.50
2018-02-21T09:07:13.523Z,55.08
2018-02-21T09:09:41.782Z,54.28
2018-02-21T09:12:09.302Z,53.33
2018-02-21T09:14:36.840Z,54.47
2018-02-21T09:17:04.319Z,54.08
2018-02-21T09:19:31.806Z,51.05
2018-02-21T09:21:59.376Z,56.72
2018-02-21T09:24:26.918Z,54.08
2018-02-21T09:26:54.452Z,52.28
2018-02-21T09:29:21.962Z,48.47
2018-02-21T09:31:50.218Z,54.00
2018-02-21T09:34:17.711Z,50.95
2018-02-21T09:36:45.230Z,50.38
2018-02-21T09:39:12.725Z,54.60
2018-02-21T09:41:40.981Z,51.22
2018-02-21T09:44:08.494Z,52.28
2018-02-21T09:46:35.978Z,51.90
2018-02-21T09:49:03.479Z,49.83
2018-02-21T09:51:31.751Z,51.67
2018-02-21T09:53:59.998Z,53.83
2018-02-21T09:56:27.485Z,48.80
2018-02-21T09:58:55.745Z,52.38
2018-02-21T10:01:24.006Z,52.45
2018-02-21T10:03:51.499Z,53.47
2018-02-21T10:06:19.014Z,51.67
2018-02-21T10:08:46.497Z,50.70
2018-02-21T10:11:14.766Z,53.50
2018-02-21T10:13:42.355Z,50.60
2018-02-21T10:16:09.869Z,51.47
2018-02-21T10:18:37.377Z,49.43
2018-02-21T10:21:04.946Z,51.30
2018-02-21T10:23:33.206Z,50.17
2018-02-21T10:26:00.730Z,51.67
2018-02-21T10:28:28.238Z,53.47
2018-02-21T10:30:55.754Z,55.50
2018-02-21T10:33:23.250Z,51.97
2018-02-21T10:35:50.737Z,53.53
2018-02-21T10:38:18.266Z,50.50
2018-02-21T10:40:45.754Z,49.27
2018-02-21T10:43:13.238Z,49.83
2018-02-21T10:45:40.742Z,54.20
2018-02-21T10:48:09.038Z,50.90
2018-02-21T10:50:36.531Z,51.00
2018-02-21T10:53:04.028Z,50.87
2018-02-21T10:55:32.337Z,53.33
2018-02-21T10:57:59.878Z,50.17
2018-02-21T11:00:33.202Z,51.70
2018-02-21T11:03:00.793Z,52.20
2018-02-21T11:05:28.278Z,51.77
2018-02-21T11:07:56.539Z,52.50
2018-02-21T11:10:24.214Z,52.00
2018-02-21T11:12:52.466Z,50.87
2018-02-21T11:15:19.954Z,52.57
2018-02-21T11:17:48.363Z,51.07
2018-02-21T11:20:15.930Z,54.03
2018-02-21T11:22:43.486Z,54.00
2018-02-21T11:25:11.818Z,52.10
2018-02-21T11:27:40.094Z,54.67
2018-02-21T11:30:08.359Z,52.90
2018-02-21T11:32:35.953Z,51.53
2018-02-21T11:35:03.504Z,52.47
2018-02-21T11:37:31.766Z,51.40
2018-02-21T11:39:59.264Z,56.30
2018-02-21T11:42:26.773Z,53.70
2018-02-21T11:44:54.255Z,53.23
2018-02-21T11:47:22.508Z,53.57
2018-02-21T11:49:50.068Z,56.10
2018-02-21T11:52:17.558Z,54.13
2018-02-21T11:54:45.294Z,52.60
2018-02-21T11:57:12.829Z,51.90
2018-02-21T11:59:40.322Z,52.33
2018-02-21T12:02:07.992Z,49.73
2018-02-21T12:04:37.112Z,49.80
2018-02-21T12:07:04.621Z,52.93
2018-02-21T12:09:32.166Z,51.47
2018-02-21T12:11:59.697Z,54.53
2018-02-21T12:14:27.182Z,52.60
2018-02-21T12:16:54.863Z,47.13
2018-02-21T12:19:23.170Z,53.33
2018-02-21T12:21:50.678Z,51.90
2018-02-21T12:24:18.170Z,49.50
2018-02-21T12:26:45.691Z,53.00
2018-02-21T12:29:13.950Z,51.83
2018-02-21T12:31:46.975Z,51.83
2018-02-21T12:34:14.478Z,52.20
2018-02-21T12:36:41.962Z,48.63
2018-02-21T12:39:15.174Z,52.37
2018-02-21T12:41:43.601Z,52.07
2018-02-21T12:44:11.858Z,51.07
2018-02-21T12:46:39.362Z,52.77
2018-02-21T12:49:06.846Z,56.13
2018-02-21T12:51:34.423Z,55.47
2018-02-21T12:54:01.976Z,51.20
2018-02-21T12:56:29.503Z,51.50
2018-02-21T12:58:57.000Z,53.10
2018-02-21T13:01:24.518Z,55.00
2018-02-21T13:03:52.018Z,52.20
2018-02-21T13:06:19.514Z,51.80
2018-02-21T13:08:47.026Z,51.47
2018-02-21T13:11:14.523Z,49.83
2018-02-21T13:13:42.766Z,50.83
2018-02-21T13:16:10.274Z,49.33
2018-02-21T13:18:37.774Z,46.10
2018-02-21T13:21:05.262Z,48.50
2018-02-21T13:23:32.746Z,47.47
2018-02-21T13:26:00.395Z,45.10
2018-02-21T13:28:27.891Z,40.57
2018-02-21T13:30:55.377Z,43.87
2018-02-21T13:33:22.902Z,44.53
2018-02-21T13:35:50.436Z,42.23
2018-02-21T13:38:17.893Z,43.87
2018-02-21T13:40:46.164Z,43.50
2018-02-21T13:43:14.417Z,41.87
2018-02-21T13:45:41.905Z,43.70
2018-02-21T13:48:09.430Z,43.20
2018-02-21T13:50:36.926Z,41.23
2018-02-21T13:53:04.415Z,41.93
2018-02-21T13:55:31.927Z,40.67
2018-02-21T13:58:00.195Z,42.00
2018-02-21T14:00:27.730Z,40.40
2018-02-21T14:02:55.266Z,39.20
2018-02-21T14:05:22.758Z,40.40
2018-02-21T14:07:50.246Z,41.17
2018-02-21T14:10:18.511Z,41.53
2018-02-21T14:12:46.006Z,40.97
2018-02-21T14:15:14.221Z,40.30
2018-02-21T14:17:41.718Z,37.80
2018-02-21T14:20:09.970Z,35.80
2018-02-21T14:22:37.493Z,35.23
2018-02-21T14:25:04.987Z,35.83
2018-02-21T14:27:32.473Z,34.30
2018-02-21T14:30:00.753Z,35.90
2018-02-21T14:32:28.338Z,36.10
2018-02-21T14:34:55.823Z,33.80
2018-02-21T14:37:23.382Z,33.10
2018-02-21T14:39:50.868Z,34.37
2018-02-21T14:42:18.382Z,31.40
2018-02-21T14:44:45.882Z,32.43
2018-02-21T14:47:13.392Z,32.57
2018-02-21T14:49:40.874Z,31.10
2018-02-21T14:52:08.390Z,33.50
2018-02-21T14:54:35.897Z,34.77
2018-02-21T14:57:03.410Z,33.07
2018-02-21T14:59:30.909Z,32.43
2018-02-21T15:01:58.442Z,31.90
2018-02-21T15:04:25.973Z,32.70
2018-02-21T15:06:54.226Z,32.33
2018-02-21T15:09:21.714Z,31.83
2018-02-21T15:11:49.280Z,31.17
2018-02-21T15:14:17.530Z,36.63
2018-02-21T15:16:46.170Z,34.73
2018-02-21T15:19:13.705Z,34.47
2018-02-21T15:21:41.339Z,34.80
2018-02-21T15:24:09.657Z,33.13
2018-02-21T15:26:37.238Z,33.57
2018-02-21T15:29:04.729Z,33.43
2018-02-21T15:31:32.218Z,32.50
2018-02-21T15:33:59.722Z,32.77
2018-02-21T15:36:27.242Z,33.00
2018-02-21T15:38:55.487Z,35.10
2018-02-21T15:41:23.816Z,32.97
2018-02-21T15:43:52.033Z,31.97
2018-02-21T15:46:19.518Z,32.40
2018-02-21T15:48:47.072Z,36.73
2018-02-21T15:51:14.635Z,33.83
2018-02-21T15:53:42.228Z,33.57
2018-02-21T15:56:09.768Z,35.37
2018-02-21T15:58:37.266Z,34.80
2018-02-21T16:01:04.830Z,34.67
2018-02-21T16:03:32.539Z,36.07
2018-02-21T16:06:00.054Z,34.90
2018-02-21T16:08:27.922Z,36.75
2018-02-21T16:10:56.428Z,39.35
2018-02-21T16:13:24.910Z,39.95
2018-02-21T16:15:52.410Z,36.40
2018-02-21T16:18:20.049Z,35.95
2018-02-21T16:20:47.656Z,36.10
2018-02-21T16:23:15.163Z,38.60
2018-02-21T16:25:43.747Z,38.15
2018-02-21T16:28:11.343Z,37.55
2018-02-21T16:30:39.837Z,37.40
2018-02-21T16:33:07.455Z,37.38
2018-02-21T16:35:35.163Z,38.90
2018-02-21T16:38:02.890Z,36.55
2018-02-21T16:40:30.548Z,38.13
2018-02-21T16:42:58.932Z,36.80
2018-02-21T16:45:26.606Z,36.13
2018-02-21T16:47:54.176Z,36.35
2018-02-21T16:50:21.862Z,39.33
2018-02-21T16:52:49.363Z,36.30
2018-02-21T16:55:17.015Z,36.50
2018-02-21T16:57:44.616Z,36.90
2018-02-21T17:00:12.279Z,39.50
2018-02-21T17:02:39.824Z,37.55
2018-02-21T17:05:07.414Z,39.20
2018-02-21T17:07:35.037Z,38.30
2018-02-21T17:10:03.503Z,38.10
2018-02-21T17:12:31.749Z,38.60
2018-02-21T17:15:00.133Z,37.83
2018-02-21T17:17:27.643Z,39.45
2018-02-21T17:19:55.212Z,39.97
2018-02-21T17:22:22.878Z,42.83
2018-02-21T17:24:51.247Z,39.58
2018-02-21T17:27:18.836Z,39.63
2018-02-21T17:29:46.587Z,40.22
2018-02-21T17:32:14.191Z,38.95
2018-02-21T17:34:41.825Z,40.55
2018-02-21T17:37:09.424Z,41.95
2018-02-21T17:39:37.062Z,43.70
2018-02-21T17:42:05.596Z,42.92
2018-02-21T17:44:33.364Z,41.80
2018-02-21T17:47:01.803Z,42.33
2018-02-21T17:49:29.415Z,44.50
2018-02-21T17:51:57.163Z,43.58
2018-02-21T17:54:24.770Z,44.13
2018-02-21T17:56:53.232Z,46.75
2018-02-21T17:59:38.150Z,44.35
2018-02-21T18:02:05.795Z,45.25
2018-02-21T18:04:40.567Z,46.97
2018-02-21T18:07:09.438Z,45.03
2018-02-21T18:09:39.453Z,47.15
2018-02-21T18:12:07.641Z,46.50
2018-02-21T18:14:36.876Z,48.35
2018-02-21T18:17:06.281Z,49.25
2018-02-21T18:19:35.404Z,47.60
2018-02-21T18:22:04.342Z,48.08
2018-02-21T18:24:33.401Z,46.35
2018-02-21T18:27:05.729Z,47.78
2018-02-21T18:29:34.545Z,50.08
2018-02-21T18:32:03.817Z,48.60
2018-02-21T18:34:32.307Z,48.28
2018-02-21T18:37:01.936Z,50.22
2018-02-21T18:39:30.790Z,50.45
2018-02-21T18:41:59.901Z,49.95
2018-02-21T18:44:39.674Z,47.97
2018-02-21T18:47:08.337Z,49.90
2018-02-21T18:49:36.334Z,50.45
2018-02-21T18:52:14.192Z,51.35
2018-02-21T18:54:42.756Z,49.47
2018-02-21T18:57:15.999Z,52.47
2018-02-21T19:02:30.380Z,53.70
2018-02-21T19:05:01.388Z,49.63
2018-02-21T19:10:16.991Z,49.47
2018-02-21T19:12:46.006Z,50.53
2018-02-21T19:15:15.828Z,51.55
2018-02-21T19:17:49.298Z,48.70
2018-02-21T19:20:17.025Z,49.63
2018-02-21T19:22:50.398Z,48.53
2018-02-21T19:25:24.252Z,49.25
2018-02-21T19:27:54.457Z,49.17
2018-02-21T19:30:23.127Z,53.20
2018-02-21T19:32:52.125Z,51.22
2018-02-21T19:35:28.265Z,51.05
2018-02-21T19:37:56.505Z,54.95
2018-02-21T19:40:25.673Z,51.72
2018-02-21T19:42:53.585Z,49.72
2018-02-21T19:45:21.460Z,52.20
2018-02-21T19:47:50.432Z,50.92
2018-02-21T19:50:21.532Z,50.78
2018-02-21T19:52:50.946Z,54.22
2018-02-21T19:55:18.491Z,54.20
2018-02-21T19:57:53.408Z,54.13
2018-02-21T20:00:21.196Z,49.88
2018-02-21T20:02:48.927Z,48.13
2018-02-21T20:05:17.365Z,51.88
2018-02-21T20:07:44.979Z,50.92
2018-02-21T20:10:12.906Z,51.65
2018-02-21T20:12:42.183Z,53.10
2018-02-21T20:15:10.191Z,51.17
2018-02-21T20:17:38.826Z,49.92
2018-02-21T20:20:06.473Z,48.53
2018-02-21T20:22:34.268Z,50.78
2018-02-21T20:25:02.096Z,51.53
2018-02-21T20:27:29.807Z,50.80
2018-02-21T20:29:57.505Z,49.38
2018-02-21T20:32:27.664Z,50.65
2018-02-21T20:35:01.206Z,48.72
2018-02-21T20:37:28.868Z,51.88
2018-02-21T20:39:56.583Z,48.30
2018-02-21T20:42:24.291Z,49.85
2018-02-21T20:44:51.814Z,47.75
2018-02-21T20:47:19.708Z,48.00
2018-02-21T20:49:47.418Z,47.92
2018-02-21T20:52:23.000Z,49.60
2018-02-21T20:54:51.357Z,46.42
2018-02-21T20:57:19.212Z,48.78
2018-02-21T20:59:49.202Z,48.58
2018-02-21T21:02:16.970Z,48.33
2018-02-21T21:04:44.738Z,47.90
2018-02-21T21:07:14.188Z,49.35
2018-02-21T21:09:41.858Z,49.38
2018-02-21T21:12:10.194Z,51.10
2018-02-21T21:14:38.834Z,49.97
2018-02-21T21:17:06.514Z,48.42
2018-02-21T21:19:36.661Z,47.80
2018-02-21T21:22:04.702Z,48.50
2018-02-21T21:24:34.768Z,48.13
2018-02-21T21:27:08.477Z,50.10
2018-02-21T21:29:38.117Z,47.70
2018-02-21T21:32:06.395Z,45.92
2018-02-21T21:34:34.304Z,46.03
2018-02-21T21:37:01.944Z,44.85
2018-02-21T21:39:29.601Z,45.60
2018-02-21T21:42:00.397Z,43.55
2018-02-21T21:44:32.570Z,47.40
2018-02-21T21:49:48.717Z,44.80
2018-02-21T21:52:27.363Z,46.17
2018-02-21T21:55:18.046Z,44.65
2018-02-21T21:57:52.256Z,45.03
2018-02-21T22:06:00.439Z,42.97
2018-02-21T22:08:32.542Z,45.20
2018-02-21T22:11:14.938Z,44.33
2018-02-21T22:13:47.200Z,46.05
2018-02-21T22:16:22.532Z,43.38
2018-02-21T22:18:55.390Z,45.42
2018-02-21T22:21:26.300Z,41.20
2018-02-21T22:23:59.044Z,44.25
2018-02-21T22:26:27.289Z,45.42
2018-02-21T22:29:01.530Z,45.75
2018-02-21T22:31:32.288Z,41.28
2018-02-21T22:34:01.592Z,41.35
2018-02-21T22:36:29.832Z,42.55
2018-02-21T22:38:59.659Z,43.70
2018-02-21T22:41:28.398Z,43.17
2018-02-21T22:43:58.494Z,45.20
2018-02-21T22:46:27.527Z,41.60
2018-02-21T22:51:30.255Z,43.58
2018-02-21T22:54:01.064Z,44.42
2018-02-21T22:56:32.526Z,41.42
2018-02-21T22:59:00.721Z,41.97
2018-02-21T23:01:31.809Z,45.25
2018-02-21T23:04:02.156Z,47.42
2018-02-21T23:06:32.102Z,44.65
2018-02-21T23:09:02.918Z,43.80
2018-02-21T23:11:33.255Z,46.90
2018-02-21T23:14:03.828Z,42.67
2018-02-21T23:16:32.138Z,44.97
2018-02-21T23:19:01.889Z,42.38
2018-02-21T23:21:31.515Z,43.47
2018-02-21T23:24:00.796Z,44.60
2018-02-21T23:26:31.225Z,41.45
2018-02-21T23:29:04.019Z,42.30
2018-02-21T23:31:33.458Z,41.33
2018-02-21T23:34:03.718Z,45.95
2018-02-21T23:36:36.333Z,43.75
2018-02-21T23:39:06.394Z,45.25
2018-02-21T23:41:36.408Z,41.85
2018-02-21T23:44:05.404Z,43.85
2018-02-21T23:46:34.000Z,43.85
2018-02-21T23:49:02.934Z,42.92
2018-02-21T23:51:31.459Z,41.83
2018-02-21T23:54:00.543Z,43.33
2018-02-21T23:56:28.592Z,43.40
2018-02-21T23:58:58.140Z,44.75
